createdAt,value
2016-08-01T00:00:32.953Z,1009.58
2016-08-01T00:01:32.951Z,1009.57
2016-08-01T00:02:32.948Z,1009.62
2016-08-01T00:04:32.945Z,1009.68
2016-08-01T00:05:32.942Z,1009.7
2016-08-01T00:06:32.940Z,1009.75
2016-08-01T00:07:32.940Z,1009.77
2016-08-01T00:08:32.938Z,1009.78
2016-08-01T00:09:32.934Z,1009.82
2016-08-01T00:10:33.013Z,1009.82
2016-08-01T00:11:32.930Z,1009.83
2016-08-01T00:12:32.930Z,1009.85
2016-08-01T00:13:34.440Z,1009.82
2016-08-01T00:14:33.275Z,1009.82
2016-08-01T00:15:34.006Z,1009.87
2016-08-01T00:16:32.922Z,1009.85
2016-08-01T00:17:32.918Z,1009.87
2016-08-01T00:18:32.916Z,1009.9
2016-08-01T00:19:32.912Z,1009.88
2016-08-01T00:20:32.992Z,1009.86
2016-08-01T00:21:32.911Z,1009.85
2016-08-01T00:22:32.907Z,1009.85
2016-08-01T00:23:32.904Z,1009.84
2016-08-01T00:24:32.902Z,1009.83
2016-08-01T00:25:32.900Z,1009.89
2016-08-01T00:26:32.899Z,1009.92
2016-08-01T00:27:32.897Z,1009.93
2016-08-01T00:28:32.894Z,1009.92
2016-08-01T00:29:32.893Z,1009.93
2016-08-01T00:30:32.889Z,1009.96
2016-08-01T00:31:32.884Z,1009.99
2016-08-01T00:32:32.881Z,1010.02
2016-08-01T00:33:32.880Z,1009.98
2016-08-01T00:34:32.878Z,1009.97
2016-08-01T00:35:32.875Z,1009.98
2016-08-01T00:36:32.874Z,1010.01
2016-08-01T00:37:32.869Z,1010.03
2016-08-01T00:38:32.869Z,1010.05
2016-08-01T00:39:32.864Z,1010.06
2016-08-01T00:40:32.864Z,1010.05
2016-08-01T00:41:32.859Z,1010.09
2016-08-01T00:42:32.857Z,1010.12
2016-08-01T00:43:32.853Z,1010.12
2016-08-01T00:44:32.848Z,1010.16
2016-08-01T00:45:33.948Z,1010.12
2016-08-01T00:46:32.847Z,1010.15
2016-08-01T00:47:32.844Z,1010.11
2016-08-01T00:49:32.837Z,1010.11
2016-08-01T00:50:32.834Z,1010.07
2016-08-01T00:51:32.831Z,1010.15
2016-08-01T00:52:32.828Z,1010.17
2016-08-01T00:53:32.826Z,1010.19
2016-08-01T00:54:32.821Z,1010.16
2016-08-01T00:56:32.815Z,1010.14
2016-08-01T00:57:32.813Z,1010.14
2016-08-01T00:58:32.810Z,1010.07
2016-08-01T00:59:32.805Z,1010.11
2016-08-01T01:00:32.804Z,1010.1
2016-08-01T01:01:32.801Z,1010.15
2016-08-01T01:02:32.797Z,1010.16
2016-08-01T01:04:32.789Z,1010.26
2016-08-01T01:05:32.788Z,1010.21
2016-08-01T01:06:32.784Z,1010.21
2016-08-01T01:07:32.782Z,1010.19
2016-08-01T01:08:32.777Z,1010.21
2016-08-01T01:09:32.775Z,1010.18
2016-08-01T01:10:32.770Z,1010.19
2016-08-01T01:11:32.768Z,1010.18
2016-08-01T01:12:32.766Z,1010.17
2016-08-01T01:13:32.762Z,1010.16
2016-08-01T01:14:32.758Z,1010.14
2016-08-01T01:15:32.756Z,1010.17
2016-08-01T01:16:32.751Z,1010.18
2016-08-01T01:17:32.750Z,1010.18
2016-08-01T01:19:32.742Z,1010.19
2016-08-01T01:20:32.739Z,1010.16
2016-08-01T01:21:32.735Z,1010.17
2016-08-01T01:23:34.116Z,1010.17
2016-08-01T01:24:32.725Z,1010.16
2016-08-01T01:25:32.894Z,1010.16
2016-08-01T01:26:32.719Z,1010.19
2016-08-01T01:27:32.718Z,1010.23
2016-08-01T01:28:32.711Z,1010.23
2016-08-01T01:29:32.710Z,1010.21
2016-08-01T01:30:32.705Z,1010.21
2016-08-01T01:31:32.704Z,1010.2
2016-08-01T01:32:32.698Z,1010.21
2016-08-01T01:34:32.693Z,1010.23
2016-08-01T01:35:32.689Z,1010.21
2016-08-01T01:36:33.339Z,1010.24
2016-08-01T01:37:32.681Z,1010.27
2016-08-01T01:38:32.677Z,1010.26
2016-08-01T01:39:32.676Z,1010.21
2016-08-01T01:40:32.675Z,1010.23
2016-08-01T01:41:32.669Z,1010.19
2016-08-01T01:42:32.666Z,1010.2
2016-08-01T01:43:32.660Z,1010.2
2016-08-01T01:44:32.658Z,1010.19
2016-08-01T01:45:32.654Z,1010.18
2016-08-01T01:46:32.650Z,1010.19
2016-08-01T01:47:32.648Z,1010.18
2016-08-01T01:48:32.645Z,1010.19
2016-08-01T01:49:32.641Z,1010.19
2016-08-01T01:50:32.635Z,1010.21
2016-08-01T01:51:32.632Z,1010.22
2016-08-01T01:52:32.631Z,1010.2
2016-08-01T01:53:32.625Z,1010.21
2016-08-01T01:54:32.621Z,1010.21
2016-08-01T01:55:32.619Z,1010.23
2016-08-01T01:56:32.617Z,1010.21
2016-08-01T01:57:32.613Z,1010.24
2016-08-01T01:58:32.608Z,1010.27
2016-08-01T01:59:32.604Z,1010.27
2016-08-01T02:00:32.604Z,1010.26
2016-08-01T02:01:32.596Z,1010.24
2016-08-01T02:02:32.594Z,1010.22
2016-08-01T02:03:32.591Z,1010.23
2016-08-01T02:05:32.583Z,1010.22
2016-08-01T02:06:32.579Z,1010.21
2016-08-01T02:07:32.576Z,1010.17
2016-08-01T02:08:32.573Z,1010.22
2016-08-01T02:09:32.720Z,1010.26
2016-08-01T02:10:32.567Z,1010.25
2016-08-01T02:11:32.560Z,1010.28
2016-08-01T02:12:32.560Z,1010.29
2016-08-01T02:13:32.555Z,1010.28
2016-08-01T02:14:32.550Z,1010.29
2016-08-01T02:15:32.548Z,1010.24
2016-08-01T02:16:32.544Z,1010.27
2016-08-01T02:17:33.090Z,1010.27
2016-08-01T02:18:32.536Z,1010.31
2016-08-01T02:19:32.531Z,1010.39
2016-08-01T02:20:32.528Z,1010.38
2016-08-01T02:21:32.525Z,1010.38
2016-08-01T02:22:32.522Z,1010.4
2016-08-01T02:23:32.518Z,1010.42
2016-08-01T02:24:32.515Z,1010.41
2016-08-01T02:25:32.510Z,1010.4
2016-08-01T02:26:32.508Z,1010.45
2016-08-01T02:27:32.500Z,1010.44
2016-08-01T02:28:32.499Z,1010.45
2016-08-01T02:29:32.495Z,1010.45
2016-08-01T02:30:32.491Z,1010.48
2016-08-01T02:31:32.488Z,1010.48
2016-08-01T02:32:32.483Z,1010.47
2016-08-01T02:33:32.481Z,1010.49
2016-08-01T02:34:32.477Z,1010.49
2016-08-01T02:35:32.473Z,1010.47
2016-08-01T02:36:32.467Z,1010.52
2016-08-01T02:37:32.465Z,1010.53
2016-08-01T02:38:32.459Z,1010.52
2016-08-01T02:39:32.459Z,1010.51
2016-08-01T02:40:32.455Z,1010.5
2016-08-01T02:41:32.487Z,1010.48
2016-08-01T02:42:32.446Z,1010.51
2016-08-01T02:43:33.080Z,1010.49
2016-08-01T02:44:32.440Z,1010.46
2016-08-01T02:45:32.435Z,1010.46
2016-08-01T02:46:32.432Z,1010.49
2016-08-01T02:47:32.429Z,1010.52
2016-08-01T02:48:32.425Z,1010.49
2016-08-01T02:49:32.420Z,1010.52
2016-08-01T02:50:32.416Z,1010.52
2016-08-01T02:51:33.287Z,1010.52
2016-08-01T02:52:32.409Z,1010.48
2016-08-01T02:53:33.039Z,1010.46
2016-08-01T02:54:32.400Z,1010.53
2016-08-01T02:55:32.399Z,1010.52
2016-08-01T02:56:32.394Z,1010.5
2016-08-01T02:57:32.390Z,1010.5
2016-08-01T02:58:32.387Z,1010.52
2016-08-01T02:59:32.381Z,1010.56
2016-08-01T03:00:32.378Z,1010.58
2016-08-01T03:01:32.375Z,1010.58
2016-08-01T03:02:32.370Z,1010.56
2016-08-01T03:03:32.364Z,1010.6
2016-08-01T03:04:32.364Z,1010.66
2016-08-01T03:05:32.357Z,1010.64
2016-08-01T03:06:32.356Z,1010.65
2016-08-01T03:07:32.352Z,1010.65
2016-08-01T03:08:32.348Z,1010.66
2016-08-01T03:09:32.342Z,1010.68
2016-08-01T03:10:32.339Z,1010.66
2016-08-01T03:11:32.337Z,1010.62
2016-08-01T03:12:32.330Z,1010.64
2016-08-01T03:13:32.329Z,1010.64
2016-08-01T03:14:32.325Z,1010.62
2016-08-01T03:15:32.324Z,1010.65
2016-08-01T03:16:32.317Z,1010.65
2016-08-01T03:17:32.314Z,1010.66
2016-08-01T03:18:32.310Z,1010.68
2016-08-01T03:19:32.307Z,1010.74
2016-08-01T03:20:32.302Z,1010.75
2016-08-01T03:22:32.295Z,1010.83
2016-08-01T03:23:32.290Z,1010.9
2016-08-01T03:24:32.387Z,1010.91
2016-08-01T03:25:32.285Z,1010.91
2016-08-01T03:26:32.280Z,1010.93
2016-08-01T03:27:32.278Z,1010.92
2016-08-01T03:28:32.274Z,1010.95
2016-08-01T03:29:32.271Z,1010.93
2016-08-01T03:30:32.268Z,1010.97
2016-08-01T03:31:32.263Z,1010.99
2016-08-01T03:32:32.261Z,1011.03
2016-08-01T03:33:32.258Z,1011.09
2016-08-01T03:34:32.255Z,1011.07
2016-08-01T03:35:32.250Z,1011.06
2016-08-01T03:36:32.247Z,1011.07
2016-08-01T03:37:32.243Z,1011.04
2016-08-01T03:38:32.242Z,1011.1
2016-08-01T03:39:32.239Z,1011.11
2016-08-01T03:40:32.234Z,1011.12
2016-08-01T03:41:32.232Z,1011.18
2016-08-01T03:42:32.229Z,1011.17
2016-08-01T03:43:32.225Z,1011.21
2016-08-01T03:44:32.223Z,1011.2
2016-08-01T03:45:32.220Z,1011.22
2016-08-01T03:46:32.216Z,1011.23
2016-08-01T03:47:32.213Z,1011.3
2016-08-01T03:48:32.210Z,1011.31
2016-08-01T03:49:32.208Z,1011.37
2016-08-01T03:50:32.205Z,1011.39
2016-08-01T03:51:32.201Z,1011.4
2016-08-01T03:52:32.197Z,1011.37
2016-08-01T03:53:32.194Z,1011.37
2016-08-01T03:54:32.191Z,1011.38
2016-08-01T03:55:32.188Z,1011.39
2016-08-01T03:56:32.186Z,1011.42
2016-08-01T03:57:32.183Z,1011.39
2016-08-01T03:58:32.177Z,1011.38
2016-08-01T03:59:32.174Z,1011.39
2016-08-01T04:00:33.699Z,1011.41
2016-08-01T04:01:33.165Z,1011.43
2016-08-01T04:02:32.166Z,1011.43
2016-08-01T04:03:32.252Z,1011.47
2016-08-01T04:04:32.161Z,1011.46
2016-08-01T04:05:32.159Z,1011.51
2016-08-01T04:06:32.154Z,1011.47
2016-08-01T04:07:32.152Z,1011.51
2016-08-01T04:09:32.147Z,1011.44
2016-08-01T04:10:32.146Z,1011.43
2016-08-01T04:11:32.143Z,1011.52
2016-08-01T04:12:32.138Z,1011.46
2016-08-01T04:13:32.194Z,1011.47
2016-08-01T04:14:32.135Z,1011.52
2016-08-01T04:15:32.130Z,1011.56
2016-08-01T04:16:32.126Z,1011.53
2016-08-01T04:17:32.125Z,1011.58
2016-08-01T04:18:32.122Z,1011.59
2016-08-01T04:19:32.119Z,1011.57
2016-08-01T04:20:32.118Z,1011.64
2016-08-01T04:21:32.115Z,1011.63
2016-08-01T04:22:32.113Z,1011.67
2016-08-01T04:23:32.110Z,1011.68
2016-08-01T04:24:32.108Z,1011.67
2016-08-01T04:25:32.105Z,1011.71
2016-08-01T04:26:32.104Z,1011.68
2016-08-01T04:27:32.098Z,1011.72
2016-08-01T04:28:32.098Z,1011.7
2016-08-01T04:29:32.095Z,1011.7
2016-08-01T04:30:32.090Z,1011.68
2016-08-01T04:31:32.088Z,1011.71
2016-08-01T04:32:32.085Z,1011.64
2016-08-01T04:33:32.085Z,1011.66
2016-08-01T04:34:32.083Z,1011.69
2016-08-01T04:35:32.077Z,1011.73
2016-08-01T04:36:32.075Z,1011.73
2016-08-01T04:37:32.073Z,1011.79
2016-08-01T04:38:32.069Z,1011.79
2016-08-01T04:39:32.066Z,1011.78
2016-08-01T04:40:32.064Z,1011.83
2016-08-01T04:41:32.063Z,1011.8
2016-08-01T04:42:32.811Z,1011.8
2016-08-01T04:43:32.059Z,1011.85
2016-08-01T04:44:32.057Z,1011.82
2016-08-01T04:45:32.052Z,1011.82
2016-08-01T04:46:32.049Z,1011.87
2016-08-01T04:47:32.046Z,1011.88
2016-08-01T04:48:32.047Z,1011.88
2016-08-01T04:50:32.042Z,1011.88
2016-08-01T04:51:32.038Z,1011.96
2016-08-01T04:52:32.035Z,1011.94
2016-08-01T04:53:32.283Z,1011.93
2016-08-01T04:54:32.035Z,1011.93
2016-08-01T04:55:32.031Z,1011.97
2016-08-01T04:56:32.031Z,1012.02
2016-08-01T04:57:32.028Z,1012.03
2016-08-01T04:58:32.025Z,1012.05
2016-08-01T04:59:32.024Z,1012.03
2016-08-01T05:00:32.028Z,1012.03
2016-08-01T05:01:32.024Z,1012.07
2016-08-01T05:02:32.021Z,1012.02
2016-08-01T05:03:32.022Z,1012.12
2016-08-01T05:04:32.022Z,1012.14
2016-08-01T05:05:32.023Z,1012.13
2016-08-01T05:06:32.033Z,1012.2
2016-08-01T05:07:32.024Z,1012.19
2016-08-01T05:08:32.024Z,1012.25
2016-08-01T05:09:32.028Z,1012.24
2016-08-01T05:10:32.029Z,1012.31
2016-08-01T05:11:32.028Z,1012.22
2016-08-01T05:12:32.032Z,1012.12
2016-08-01T05:13:32.037Z,1012.33
2016-08-01T05:14:32.038Z,1012.28
2016-08-01T05:15:32.040Z,1012.19
2016-08-01T05:16:32.046Z,1012.26
2016-08-01T05:17:33.320Z,1012.34
2016-08-01T05:18:32.502Z,1012.31
2016-08-01T05:19:32.947Z,1012.3
2016-08-01T05:20:32.062Z,1012.46
2016-08-01T05:21:32.066Z,1012.28
2016-08-01T05:22:32.072Z,1012.2
2016-08-01T05:23:32.075Z,1012.3
2016-08-01T05:24:32.082Z,1012.26
2016-08-01T05:25:32.086Z,1012.34
2016-08-01T05:26:32.108Z,1012.33
2016-08-01T05:27:32.095Z,1012.34
2016-08-01T05:28:32.213Z,1012.4
2016-08-01T05:29:32.105Z,1012.43
2016-08-01T05:30:32.113Z,1012.51
2016-08-01T05:31:32.116Z,1012.52
2016-08-01T05:32:32.124Z,1012.5
2016-08-01T05:33:32.302Z,1012.53
2016-08-01T05:34:32.132Z,1012.56
2016-08-01T05:35:32.141Z,1012.39
2016-08-01T05:36:32.150Z,1012.31
2016-08-01T05:37:32.151Z,1012.48
2016-08-01T05:38:32.156Z,1012.52
2016-08-01T05:39:32.166Z,1012.52
2016-08-01T05:40:32.171Z,1012.38
2016-08-01T05:41:32.178Z,1012.37
2016-08-01T05:42:32.184Z,1012.55
2016-08-01T05:43:32.191Z,1012.45
2016-08-01T05:44:32.198Z,1012.58
2016-08-01T05:45:32.204Z,1012.65
2016-08-01T05:46:32.212Z,1012.66
2016-08-01T05:47:32.221Z,1012.7
2016-08-01T05:48:32.227Z,1012.72
2016-08-01T05:49:32.234Z,1012.54
2016-08-01T05:50:32.241Z,1012.78
2016-08-01T05:51:32.248Z,1012.67
2016-08-01T05:52:32.258Z,1012.75
2016-08-01T05:53:32.264Z,1012.62
2016-08-01T05:54:32.276Z,1012.99
2016-08-01T05:55:32.283Z,1012.84
2016-08-01T05:56:32.289Z,1012.72
2016-08-01T05:57:32.300Z,1012.72
2016-08-01T05:59:32.315Z,1012.68
2016-08-01T06:00:33.075Z,1012.86
2016-08-01T06:01:32.883Z,1012.93
2016-08-01T06:02:32.340Z,1012.87
2016-08-01T06:03:32.350Z,1012.72
2016-08-01T06:05:32.369Z,1012.91
2016-08-01T06:06:32.379Z,1012.96
2016-08-01T06:07:33.237Z,1012.99
2016-08-01T06:08:32.397Z,1012.9
2016-08-01T06:09:33.409Z,1012.94
2016-08-01T06:10:33.217Z,1012.74
2016-08-01T06:11:32.426Z,1012.91
2016-08-01T06:12:32.437Z,1013.01
2016-08-01T06:13:32.444Z,1013.09
2016-08-01T06:14:32.456Z,1013.1
2016-08-01T06:15:32.466Z,1013.03
2016-08-01T06:16:32.475Z,1013.08
2016-08-01T06:17:32.483Z,1013.17
2016-08-01T06:18:32.496Z,1013.19
2016-08-01T06:20:32.515Z,1013.17
2016-08-01T06:21:32.527Z,1013.07
2016-08-01T06:22:32.536Z,1013.03
2016-08-01T06:23:32.547Z,1013.18
2016-08-01T06:24:32.559Z,1013.1
2016-08-01T06:25:32.570Z,1013.16
2016-08-01T06:26:32.581Z,1013.17
2016-08-01T06:27:32.591Z,1013.12
2016-08-01T06:28:32.603Z,1013.14
2016-08-01T06:29:32.616Z,1013.14
2016-08-01T06:30:32.627Z,1013.15
2016-08-01T06:31:32.641Z,1013.1
2016-08-01T06:32:32.650Z,1013.18
2016-08-01T06:33:32.662Z,1013.17
2016-08-01T06:35:32.690Z,1013.21
2016-08-01T06:36:32.702Z,1013.2
2016-08-01T06:37:33.491Z,1013.33
2016-08-01T06:38:32.727Z,1013.32
2016-08-01T06:39:32.739Z,1013.33
2016-08-01T06:40:32.755Z,1013.4
2016-08-01T06:41:32.768Z,1013.46
2016-08-01T06:42:32.783Z,1013.35
2016-08-01T06:43:32.795Z,1013.42
2016-08-01T06:44:32.810Z,1013.43
2016-08-01T06:45:32.825Z,1013.41
2016-08-01T06:46:32.836Z,1013.38
2016-08-01T06:47:32.852Z,1013.31
2016-08-01T06:48:32.868Z,1013.34
2016-08-01T06:49:33.316Z,1013.29
2016-08-01T06:50:32.894Z,1013.42
2016-08-01T06:51:32.907Z,1013.37
2016-08-01T06:52:32.925Z,1013.39
2016-08-01T06:53:32.939Z,1013.6
2016-08-01T06:54:32.966Z,1013.55
2016-08-01T06:55:32.969Z,1013.18
2016-08-01T06:56:32.984Z,1013.51
2016-08-01T06:57:33.000Z,1013.68
2016-08-01T06:58:33.014Z,1013.61
2016-08-01T06:59:33.030Z,1013.44
2016-08-01T07:00:33.044Z,1013.42
2016-08-01T07:01:33.056Z,1013.15
2016-08-01T07:02:33.071Z,1013.22
2016-08-01T07:03:33.085Z,1013.13
2016-08-01T07:04:33.099Z,1013.32
2016-08-01T07:05:33.116Z,1013.19
2016-08-01T07:06:33.130Z,1013.51
2016-08-01T07:07:33.144Z,1013.57
2016-08-01T07:08:33.155Z,1013.72
2016-08-01T07:09:33.169Z,1013.63
2016-08-01T07:10:33.183Z,1013.67
2016-08-01T07:11:33.196Z,1013.56
2016-08-01T07:12:33.224Z,1013.84
2016-08-01T07:13:33.228Z,1013.32
2016-08-01T07:14:33.236Z,1013.33
2016-08-01T07:15:33.252Z,1013.23
2016-08-01T07:17:33.278Z,1013.26
2016-08-01T07:18:33.292Z,1013.14
2016-08-01T07:19:33.304Z,1013.15
2016-08-01T07:20:33.317Z,1013.09
2016-08-01T07:21:33.327Z,1013.05
2016-08-01T07:22:33.340Z,1012.97
2016-08-01T07:23:33.351Z,1013.06
2016-08-01T07:24:33.360Z,1013.42
2016-08-01T07:25:34.173Z,1013.32
2016-08-01T07:26:33.383Z,1013.18
2016-08-01T07:27:33.395Z,1013.1
2016-08-01T07:28:33.404Z,1013.06
2016-08-01T07:29:33.917Z,1013.31
2016-08-01T07:30:33.423Z,1013.68
2016-08-01T07:31:33.887Z,1013.61
2016-08-01T07:32:33.446Z,1013.6
2016-08-01T07:33:33.456Z,1013.67
2016-08-01T07:34:33.466Z,1013.74
2016-08-01T07:35:33.478Z,1013.65
2016-08-01T07:36:33.486Z,1013.6
2016-08-01T07:37:33.499Z,1014.03
2016-08-01T07:38:33.510Z,1013.66
2016-08-01T07:39:33.520Z,1013.32
2016-08-01T07:40:33.532Z,1013.57
2016-08-01T07:41:33.546Z,1013.53
2016-08-01T07:42:33.555Z,1013.47
2016-08-01T07:43:33.568Z,1013.29
2016-08-01T07:44:33.580Z,1013.79
2016-08-01T07:45:33.592Z,1014.17
2016-08-01T07:46:33.601Z,1013.41
2016-08-01T07:47:33.612Z,1014.11
2016-08-01T07:48:33.622Z,1014.16
2016-08-01T07:49:33.634Z,1013.46
2016-08-01T07:50:33.648Z,1013.2
2016-08-01T07:51:33.657Z,1013.33
2016-08-01T07:52:33.667Z,1013.41
2016-08-01T07:53:33.680Z,1013.2
2016-08-01T07:54:33.690Z,1013.2
2016-08-01T07:55:33.989Z,1014.05
2016-08-01T07:56:33.714Z,1013.59
2016-08-01T07:57:33.722Z,1013.23
2016-08-01T07:58:33.731Z,1014.02
2016-08-01T07:59:33.742Z,1014.26
2016-08-01T08:00:33.754Z,1014.49
2016-08-01T08:01:33.766Z,1014.7
2016-08-01T08:02:35.273Z,1015.06
2016-08-01T08:03:33.789Z,1015.42
2016-08-01T08:04:33.800Z,1015.38
2016-08-01T08:05:33.811Z,1015.64
2016-08-01T08:06:34.266Z,1013.86
2016-08-01T08:07:33.840Z,1013.58
2016-08-01T08:08:33.850Z,1015.42
2016-08-01T08:09:33.864Z,1013.53
2016-08-01T08:10:33.876Z,1013.36
2016-08-01T08:11:33.891Z,1013.2
2016-08-01T08:12:33.905Z,1013.23
2016-08-01T08:13:33.917Z,1013.3
2016-08-01T08:14:33.929Z,1013.7
2016-08-01T08:15:33.941Z,1013.55
2016-08-01T08:16:33.951Z,1013.35
2016-08-01T08:17:33.963Z,1013.44
2016-08-01T08:18:33.973Z,1013.65
2016-08-01T08:19:33.984Z,1013.57
2016-08-01T08:20:33.997Z,1014.95
2016-08-01T08:21:34.008Z,1014.92
2016-08-01T08:22:34.020Z,1014.84
2016-08-01T08:23:34.031Z,1013.48
2016-08-01T08:24:34.039Z,1014.75
2016-08-01T08:25:34.052Z,1014.56
2016-08-01T08:26:34.063Z,1013.84
2016-08-01T08:27:34.073Z,1014.6
2016-08-01T08:28:34.087Z,1014.35
2016-08-01T08:29:34.099Z,1014.37
2016-08-01T08:30:34.108Z,1014.23
2016-08-01T08:31:34.123Z,1014.2
2016-08-01T08:32:34.135Z,1013.52
2016-08-01T08:33:34.145Z,1013.83
2016-08-01T08:35:34.172Z,1014.1
2016-08-01T08:36:34.180Z,1013.43
2016-08-01T08:37:34.193Z,1014.02
2016-08-01T08:38:34.206Z,1013.36
2016-08-01T08:39:34.215Z,1013.59
2016-08-01T08:40:34.228Z,1013.36
2016-08-01T08:41:34.242Z,1013.91
2016-08-01T08:42:34.254Z,1013.89
2016-08-01T08:43:34.268Z,1013.88
2016-08-01T08:44:34.276Z,1013.51
2016-08-01T08:45:34.286Z,1013.65
2016-08-01T08:46:34.600Z,1013.47
2016-08-01T08:47:34.308Z,1013.39
2016-08-01T08:48:34.320Z,1013.41
2016-08-01T08:49:34.333Z,1013.35
2016-08-01T08:50:34.340Z,1013.57
2016-08-01T08:51:34.354Z,1013.58
2016-08-01T08:52:34.364Z,1013.34
2016-08-01T08:53:34.372Z,1013.3
2016-08-01T08:54:34.384Z,1013.3
2016-08-01T08:55:34.492Z,1013.38
2016-08-01T08:56:34.400Z,1013.48
2016-08-01T08:57:34.411Z,1013.3
2016-08-01T08:58:34.420Z,1013.29
2016-08-01T08:59:34.430Z,1013.42
2016-08-01T09:00:34.437Z,1013.76
2016-08-01T09:01:34.447Z,1013.74
2016-08-01T09:02:34.453Z,1013.62
2016-08-01T09:03:34.460Z,1013.46
2016-08-01T09:04:34.469Z,1013.52
2016-08-01T09:05:34.477Z,1013.61
2016-08-01T09:06:34.488Z,1013.52
2016-08-01T09:07:34.494Z,1013.72
2016-08-01T09:08:34.500Z,1013.47
2016-08-01T09:09:34.507Z,1013.68
2016-08-01T09:10:34.514Z,1013.8
2016-08-01T09:11:34.521Z,1013.89
2016-08-01T09:12:34.527Z,1013.66
2016-08-01T09:13:34.537Z,1013.58
2016-08-01T09:14:34.542Z,1013.61
2016-08-01T09:15:34.549Z,1013.51
2016-08-01T09:16:35.217Z,1013.65
2016-08-01T09:17:34.950Z,1013.72
2016-08-01T09:18:34.567Z,1013.73
2016-08-01T09:19:34.680Z,1013.66
2016-08-01T09:20:35.506Z,1013.51
2016-08-01T09:21:34.588Z,1013.46
2016-08-01T09:22:35.558Z,1013.5
2016-08-01T09:23:35.620Z,1013.45
2016-08-01T09:24:34.607Z,1013.47
2016-08-01T09:25:34.613Z,1013.51
2016-08-01T09:26:34.618Z,1013.59
2016-08-01T09:27:34.623Z,1013.82
2016-08-01T09:28:34.627Z,1013.65
2016-08-01T09:29:34.634Z,1013.47
2016-08-01T09:30:34.638Z,1013.52
2016-08-01T09:31:34.645Z,1013.52
2016-08-01T09:32:34.648Z,1013.53
2016-08-01T09:33:34.656Z,1013.56
2016-08-01T09:34:34.660Z,1013.56
2016-08-01T09:35:34.664Z,1013.58
2016-08-01T09:36:34.671Z,1013.56
2016-08-01T09:37:34.675Z,1013.57
2016-08-01T09:38:34.680Z,1013.54
2016-08-01T09:39:34.685Z,1013.55
2016-08-01T09:40:34.688Z,1013.57
2016-08-01T09:41:34.693Z,1013.55
2016-08-01T09:42:34.697Z,1013.85
2016-08-01T09:43:34.703Z,1013.81
2016-08-01T09:44:34.709Z,1013.8
2016-08-01T09:45:34.711Z,1013.85
2016-08-01T09:46:34.716Z,1013.8
2016-08-01T09:47:34.722Z,1013.59
2016-08-01T09:48:34.728Z,1013.5
2016-08-01T09:49:34.728Z,1013.5
2016-08-01T09:50:34.733Z,1013.66
2016-08-01T09:51:34.740Z,1013.72
2016-08-01T09:52:34.745Z,1013.64
2016-08-01T09:53:34.748Z,1013.63
2016-08-01T09:54:34.903Z,1013.54
2016-08-01T09:55:34.757Z,1013.54
2016-08-01T09:56:35.162Z,1013.56
2016-08-01T09:57:35.314Z,1013.61
2016-08-01T09:58:34.768Z,1013.58
2016-08-01T09:59:34.772Z,1013.71
2016-08-01T10:00:34.778Z,1013.84
2016-08-01T10:01:34.782Z,1014.03
2016-08-01T10:02:34.785Z,1014.11
2016-08-01T10:03:34.988Z,1014.04
2016-08-01T10:04:34.792Z,1014.19
2016-08-01T10:05:34.803Z,1014.09
2016-08-01T10:06:34.803Z,1013.94
2016-08-01T10:07:34.804Z,1013.85
2016-08-01T10:08:34.810Z,1013.82
2016-08-01T10:09:34.816Z,1013.73
2016-08-01T10:10:34.820Z,1013.75
2016-08-01T10:11:34.824Z,1013.67
2016-08-01T10:12:34.827Z,1013.68
2016-08-01T10:13:34.831Z,1013.82
2016-08-01T10:14:34.845Z,1013.8
2016-08-01T10:15:34.842Z,1013.77
2016-08-01T10:16:34.847Z,1013.79
2016-08-01T10:17:34.852Z,1013.75
2016-08-01T10:18:34.855Z,1013.72
2016-08-01T10:19:34.858Z,1013.75
2016-08-01T10:20:34.862Z,1013.7
2016-08-01T10:21:34.870Z,1013.7
2016-08-01T10:22:34.872Z,1013.73
2016-08-01T10:23:34.878Z,1013.7
2016-08-01T10:24:34.882Z,1013.64
2016-08-01T10:25:34.887Z,1013.67
2016-08-01T10:26:34.895Z,1013.62
2016-08-01T10:27:34.896Z,1013.67
2016-08-01T10:28:34.898Z,1013.72
2016-08-01T10:29:35.571Z,1013.78
2016-08-01T10:30:34.906Z,1013.87
2016-08-01T10:31:34.913Z,1013.92
2016-08-01T10:32:34.915Z,1014.12
2016-08-01T10:33:34.920Z,1014.18
2016-08-01T10:34:34.924Z,1014.25
2016-08-01T10:35:34.927Z,1014.09
2016-08-01T10:36:34.931Z,1014.02
2016-08-01T10:37:34.936Z,1014.01
2016-08-01T10:38:34.943Z,1014
2016-08-01T10:40:35.892Z,1013.88
2016-08-01T10:41:34.956Z,1013.9
2016-08-01T10:42:34.957Z,1013.85
2016-08-01T10:43:34.964Z,1013.78
2016-08-01T10:44:35.163Z,1013.84
2016-08-01T10:45:34.973Z,1013.85
2016-08-01T10:46:34.977Z,1013.78
2016-08-01T10:47:34.978Z,1013.7
2016-08-01T10:48:34.985Z,1013.7
2016-08-01T10:49:34.988Z,1013.92
2016-08-01T10:51:34.997Z,1013.81
2016-08-01T10:52:35.003Z,1013.9
2016-08-01T10:53:35.006Z,1013.81
2016-08-01T10:54:35.012Z,1013.83
2016-08-01T10:55:35.115Z,1013.9
2016-08-01T10:56:35.019Z,1014
2016-08-01T10:57:35.022Z,1013.95
2016-08-01T10:58:35.026Z,1013.83
2016-08-01T10:59:35.033Z,1013.83
2016-08-01T11:00:35.036Z,1013.77
2016-08-01T11:01:35.041Z,1013.79
2016-08-01T11:02:35.044Z,1013.87
2016-08-01T11:03:35.049Z,1013.8
2016-08-01T11:04:35.055Z,1013.79
2016-08-01T11:06:35.065Z,1013.68
2016-08-01T11:07:35.068Z,1013.78
2016-08-01T11:08:35.072Z,1013.77
2016-08-01T11:09:35.079Z,1013.89
2016-08-01T11:10:35.081Z,1013.92
2016-08-01T11:11:36.088Z,1013.86
2016-08-01T11:12:35.093Z,1013.9
2016-08-01T11:13:35.097Z,1013.86
2016-08-01T11:14:35.101Z,1013.86
2016-08-01T11:15:35.103Z,1013.72
2016-08-01T11:16:35.111Z,1013.59
2016-08-01T11:17:35.115Z,1013.67
2016-08-01T11:18:35.117Z,1013.66
2016-08-01T11:19:35.121Z,1013.64
2016-08-01T11:21:35.579Z,1013.54
2016-08-01T11:22:35.132Z,1013.46
2016-08-01T11:23:35.137Z,1013.55
2016-08-01T11:24:35.140Z,1013.74
2016-08-01T11:25:35.145Z,1013.6
2016-08-01T11:26:35.148Z,1013.51
2016-08-01T11:27:35.405Z,1013.49
2016-08-01T11:28:35.155Z,1013.44
2016-08-01T11:29:35.159Z,1013.56
2016-08-01T11:30:35.164Z,1013.72
2016-08-01T11:31:35.169Z,1013.73
2016-08-01T11:32:35.172Z,1013.62
2016-08-01T11:33:35.177Z,1013.7
2016-08-01T11:34:35.178Z,1013.69
2016-08-01T11:35:35.181Z,1013.58
2016-08-01T11:36:35.186Z,1013.72
2016-08-01T11:37:35.188Z,1013.91
2016-08-01T11:38:35.195Z,1014.03
2016-08-01T11:39:35.196Z,1014.11
2016-08-01T11:40:35.201Z,1014.22
2016-08-01T11:41:35.205Z,1014.22
2016-08-01T11:42:35.210Z,1014.15
2016-08-01T11:43:35.213Z,1014.01
2016-08-01T11:44:35.216Z,1013.99
2016-08-01T11:45:35.224Z,1014.02
2016-08-01T11:46:35.224Z,1014.09
2016-08-01T11:47:35.230Z,1014.2
2016-08-01T11:50:35.240Z,1014.41
2016-08-01T11:51:36.411Z,1014.36
2016-08-01T11:52:35.250Z,1014.4
2016-08-01T11:53:35.256Z,1014.45
2016-08-01T11:54:35.261Z,1014.4
2016-08-01T11:55:35.314Z,1014.31
2016-08-01T11:56:35.271Z,1014.31
2016-08-01T11:57:35.706Z,1014.21
2016-08-01T11:58:36.067Z,1014.18
2016-08-01T11:59:35.287Z,1014.23
2016-08-01T12:00:35.294Z,1014.21
2016-08-01T12:01:35.295Z,1014.12
2016-08-01T12:02:35.305Z,1014.18
2016-08-01T12:03:35.306Z,1014.27
2016-08-01T12:04:35.314Z,1014.34
2016-08-01T12:05:35.318Z,1014.4
2016-08-01T12:06:35.330Z,1014.4
2016-08-01T12:07:35.329Z,1014.46
2016-08-01T12:08:35.338Z,1014.47
2016-08-01T12:09:35.342Z,1014.47
2016-08-01T12:10:35.348Z,1014.46
2016-08-01T12:11:35.353Z,1014.46
2016-08-01T12:12:35.359Z,1014.47
2016-08-01T12:13:35.366Z,1014.44
2016-08-01T12:14:35.374Z,1014.35
2016-08-01T12:15:35.380Z,1014.33
2016-08-01T12:16:35.384Z,1014.26
2016-08-01T12:17:35.393Z,1014.19
2016-08-01T12:18:35.398Z,1014.17
2016-08-01T12:19:35.405Z,1014.15
2016-08-01T12:20:35.413Z,1014.28
2016-08-01T12:21:35.417Z,1014.34
2016-08-01T12:22:35.422Z,1014.43
2016-08-01T12:23:35.429Z,1014.52
2016-08-01T12:24:35.436Z,1014.58
2016-08-01T12:25:35.443Z,1014.5
2016-08-01T12:26:35.449Z,1014.53
2016-08-01T12:27:35.456Z,1014.45
2016-08-01T12:28:35.464Z,1014.34
2016-08-01T12:30:35.477Z,1014.31
2016-08-01T12:31:35.483Z,1014.42
2016-08-01T12:32:35.492Z,1014.51